sensor_id;sensor_type;location;lat;lon;timestamp;pressure;altitude;pressure_sealevel;temperature;humidity
42067;BME280;27734;47.028;28.820;2023-04-08T00:02:08;100914.09;;;6.86;100.00
42067;BME280;27734;47.028;28.820;2023-04-08T00:04:40;100913.17;;;6.86;100.00
42067;BME280;27734;47.028;28.820;2023-04-08T00:07:12;100913.17;;;6.86;100.00
42067;BME280;27734;47.028;28.820;2023-04-08T00:09:45;100914.00;;;6.84;100.00
42067;BME280;27734;47.028;28.820;2023-04-08T00:12:17;100912.20;;;6.83;100.00
42067;BME280;27734;47.028;28.820;2023-04-08T00:14:49;100907.81;;;6.82;100.00
42067;BME280;27734;47.028;28.820;2023-04-08T00:17:21;100913.73;;;6.80;100.00
42067;BME280;27734;47.028;28.820;2023-04-08T00:19:54;100916.26;;;6.78;100.00
42067;BME280;27734;47.028;28.820;2023-04-08T00:22:26;100914.27;;;6.74;100.00
42067;BME280;27734;47.028;28.820;2023-04-08T00:24:59;100916.80;;;6.73;100.00
42067;BME280;27734;47.028;28.820;2023-04-08T00:27:31;100912.41;;;6.72;100.00
42067;BME280;27734;47.028;28.820;2023-04-08T00:30:05;100913.38;;;6.74;100.00
42067;BME280;27734;47.028;28.820;2023-04-08T00:32:37;100909.98;;;6.75;100.00
42067;BME280;27734;47.028;28.820;2023-04-08T00:35:10;100915.02;;;6.72;100.00
42067;BME280;27734;47.028;28.820;2023-04-08T00:37:43;100919.22;;;6.70;100.00
42067;BME280;27734;47.028;28.820;2023-04-08T00:40:15;100914.00;;;6.70;100.00
42067;BME280;27734;47.028;28.820;2023-04-08T00:42:48;100917.53;;;6.70;100.00
42067;BME280;27734;47.028;28.820;2023-04-08T00:45:20;100916.70;;;6.71;100.00
42067;BME280;27734;47.028;28.820;2023-04-08T00:47:53;100917.63;;;6.72;100.00
42067;BME280;27734;47.028;28.820;2023-04-08T00:50:25;100912.32;;;6.70;100.00
42067;BME280;27734;47.028;28.820;2023-04-08T00:52:58;100920.14;;;6.70;100.00
42067;BME280;27734;47.028;28.820;2023-04-08T00:55:30;100914.93;;;6.70;100.00
42067;BME280;27734;47.028;28.820;2023-04-08T00:58:02;100918.34;;;6.69;100.00
42067;BME280;27734;47.028;28.820;2023-04-08T01:00:37;100922.66;;;6.69;100.00
42067;BME280;27734;47.028;28.820;2023-04-08T01:03:15;100925.27;;;6.69;100.00
42067;BME280;27734;47.028;28.820;2023-04-08T01:05:55;100928.67;;;6.68;100.00
42067;BME280;27734;47.028;28.820;2023-04-08T01:08:31;100926.69;;;6.63;100.00
42067;BME280;27734;47.028;28.820;2023-04-08T01:11:11;100928.31;;;6.61;100.00
42067;BME280;27734;47.028;28.820;2023-04-08T01:13:46;100933.53;;;6.61;100.00
42067;BME280;27734;47.028;28.820;2023-04-08T01:16:21;100932.65;;;6.61;100.00
42067;BME280;27734;47.028;28.820;2023-04-08T01:18:57;100926.60;;;6.62;100.00
42067;BME280;27734;47.028;28.820;2023-04-08T01:21:31;100935.44;;;6.64;100.00
42067;BME280;27734;47.028;28.820;2023-04-08T01:24:10;100934.60;;;6.65;100.00
42067;BME280;27734;47.028;28.820;2023-04-08T01:26:47;100932.92;;;6.65;100.00
42067;BME280;27734;47.028;28.820;2023-04-08T01:29:21;100929.20;;;6.62;100.00
42067;BME280;27734;47.028;28.820;2023-04-08T01:31:54;100935.08;;;6.58;100.00
42067;BME280;27734;47.028;28.820;2023-04-08T01:34:29;100935.88;;;6.57;100.00
42067;BME280;27734;47.028;28.820;2023-04-08T01:37:03;100937.69;;;6.58;100.00
42067;BME280;27734;47.028;28.820;2023-04-08T01:39:36;100935.08;;;6.58;100.00
42067;BME280;27734;47.028;28.820;2023-04-08T01:42:10;100943.61;;;6.55;100.00
42067;BME280;27734;47.028;28.820;2023-04-08T01:44:43;100936.48;;;6.53;100.00
42067;BME280;27734;47.028;28.820;2023-04-08T01:47:16;100945.23;;;6.53;100.00
42067;BME280;27734;47.028;28.820;2023-04-08T01:49:50;100942.72;;;6.55;100.00
42067;BME280;27734;47.028;28.820;2023-04-08T01:52:24;100947.93;;;6.55;100.00
42067;BME280;27734;47.028;28.820;2023-04-08T01:54:58;100940.11;;;6.55;100.00
42067;BME280;27734;47.028;28.820;2023-04-08T01:57:34;100941.88;;;6.56;100.00
42067;BME280;27734;47.028;28.820;2023-04-08T02:00:09;100939.27;;;6.56;100.00
42067;BME280;27734;47.028;28.820;2023-04-08T02:02:55;100934.98;;;6.56;100.00
42067;BME280;27734;47.028;28.820;2023-04-08T02:05:28;100937.41;;;6.53;100.00
42067;BME280;27734;47.028;28.820;2023-04-08T02:08:01;100944.31;;;6.53;100.00
42067;BME280;27734;47.028;28.820;2023-04-08T02:10:34;100949.52;;;6.53;100.00
42067;BME280;27734;47.028;28.820;2023-04-08T02:13:08;100946.92;;;6.53;100.00
42067;BME280;27734;47.028;28.820;2023-04-08T02:15:45;100949.52;;;6.53;100.00
42067;BME280;27734;47.028;28.820;2023-04-08T02:18:24;100938.02;;;6.49;100.00
42067;BME280;27734;47.028;28.820;2023-04-08T02:21:07;100945.76;;;6.47;100.00
42067;BME280;27734;47.028;28.820;2023-04-08T02:23:44;100942.27;;;6.47;100.00
42067;BME280;27734;47.028;28.820;2023-04-08T02:26:18;100946.55;;;6.46;100.00
42067;BME280;27734;47.028;28.820;2023-04-08T02:28:53;100944.78;;;6.45;100.00
42067;BME280;27734;47.028;28.820;2023-04-08T02:31:27;100956.89;;;6.45;100.00
42067;BME280;27734;47.028;28.820;2023-04-08T02:33:59;100948.98;;;6.43;100.00
42067;BME280;27734;47.028;28.820;2023-04-08T02:36:34;100948.09;;;6.43;100.00
42067;BME280;27734;47.028;28.820;2023-04-08T02:39:07;100953.30;;;6.43;100.00
42067;BME280;27734;47.028;28.820;2023-04-08T02:41:39;100949.90;;;6.44;100.00
42067;BME280;27734;47.028;28.820;2023-04-08T02:44:11;100953.30;;;6.43;100.00
42067;BME280;27734;47.028;28.820;2023-04-08T02:50:06;100953.64;;;6.34;100.00
42067;BME280;27734;47.028;28.820;2023-04-08T02:52:39;100952.56;;;6.30;100.00
42067;BME280;27734;47.028;28.820;2023-04-08T02:55:12;100961.31;;;6.31;100.00
42067;BME280;27734;47.028;28.820;2023-04-08T02:57:45;100958.70;;;6.31;100.00
42067;BME280;27734;47.028;28.820;2023-04-08T03:00:17;100962.02;;;6.28;100.00
42067;BME280;27734;47.028;28.820;2023-04-08T03:02:49;100967.13;;;6.27;100.00
42067;BME280;27734;47.028;28.820;2023-04-08T03:05:21;100966.15;;;6.25;100.00
42067;BME280;27734;47.028;28.820;2023-04-08T03:07:54;100966.05;;;6.23;100.00
42067;BME280;27734;47.028;28.820;2023-04-08T03:10:26;100961.55;;;6.21;100.00
42067;BME280;27734;47.028;28.820;2023-04-08T03:12:58;100964.58;;;6.14;100.00
42067;BME280;27734;47.028;28.820;2023-04-08T03:15:30;100967.82;;;6.09;100.00
42067;BME280;27734;47.028;28.820;2023-04-08T03:18:03;100969.03;;;6.01;100.00
42067;BME280;27734;47.028;28.820;2023-04-08T03:20:35;100967.95;;;5.98;100.00
42067;BME280;27734;47.028;28.820;2023-04-08T03:23:07;100972.28;;;5.97;100.00
42067;BME280;27734;47.028;28.820;2023-04-08T03:25:40;100972.28;;;5.97;100.00
42067;BME280;27734;47.028;28.820;2023-04-08T03:28:12;100977.67;;;6.00;100.00
42067;BME280;27734;47.028;28.820;2023-04-08T03:30:44;100971.64;;;6.01;100.00
42067;BME280;27734;47.028;28.820;2023-04-08T03:33:16;100976.94;;;6.03;100.00
42067;BME280;27734;47.028;28.820;2023-04-08T03:35:48;100976.05;;;6.02;100.00
42067;BME280;27734;47.028;28.820;2023-04-08T03:38:21;100978.66;;;6.02;100.00
42067;BME280;27734;47.028;28.820;2023-04-08T03:40:53;100987.27;;;6.01;100.00
42067;BME280;27734;47.028;28.820;2023-04-08T03:43:25;100985.39;;;5.99;100.00
42067;BME280;27734;47.028;28.820;2023-04-08T03:45:58;100984.70;;;5.88;100.00
42067;BME280;27734;47.028;28.820;2023-04-08T03:48:30;100992.82;;;5.79;100.00
42067;BME280;27734;47.028;28.820;2023-04-08T03:51:02;100988.34;;;5.76;100.00
42067;BME280;27734;47.028;28.820;2023-04-08T03:53:35;100985.73;;;5.76;100.00
42067;BME280;27734;47.028;28.820;2023-04-08T03:56:08;100990.22;;;5.79;100.00
42067;BME280;27734;47.028;28.820;2023-04-08T03:58:40;100990.31;;;5.81;100.00
42067;BME280;27734;47.028;28.820;2023-04-08T04:01:12;100985.84;;;5.78;100.00
42067;BME280;27734;47.028;28.820;2023-04-08T04:03:45;100991.11;;;5.80;100.00
42067;BME280;27734;47.028;28.820;2023-04-08T04:06:17;100992.73;;;5.78;100.00
42067;BME280;27734;47.028;28.820;2023-04-08T04:08:49;100992.53;;;5.74;100.00
42067;BME280;27734;47.028;28.820;2023-04-08T04:11:24;100987.95;;;5.70;100.00
42067;BME280;27734;47.028;28.820;2023-04-08T04:13:56;100992.05;;;5.67;100.00
42067;BME280;27734;47.028;28.820;2023-04-08T04:16:28;100995.38;;;5.64;100.00
42067;BME280;27734;47.028;28.820;2023-04-08T04:19:00;100992.58;;;5.61;100.00
42067;BME280;27734;47.028;28.820;2023-04-08T04:21:32;101001.47;;;5.65;100.00
42067;BME280;27734;47.028;28.820;2023-04-08T04:24:05;101000.05;;;5.70;100.00
42067;BME280;27734;47.028;28.820;2023-04-08T04:26:37;101003.38;;;5.67;100.00
42067;BME280;27734;47.028;28.820;2023-04-08T04:29:11;101004.87;;;5.64;100.00
42067;BME280;27734;47.028;28.820;2023-04-08T04:31:43;101005.70;;;5.63;100.00
42067;BME280;27734;47.028;28.820;2023-04-08T04:34:15;101014.30;;;5.62;100.00
42067;BME280;27734;47.028;28.820;2023-04-08T04:36:48;101016.11;;;5.63;100.00
42067;BME280;27734;47.028;28.820;2023-04-08T04:39:20;101017.89;;;5.64;100.00
42067;BME280;27734;47.028;28.820;2023-04-08T04:41:52;101018.91;;;5.66;100.00
42067;BME280;27734;47.028;28.820;2023-04-08T04:44:25;101025.99;;;5.68;100.00
42067;BME280;27734;47.028;28.820;2023-04-08T04:46:57;101028.80;;;5.71;100.00
42067;BME280;27734;47.028;28.820;2023-04-08T04:49:29;101035.22;;;5.76;100.00
42067;BME280;27734;47.028;28.820;2023-04-08T04:52:01;101041.61;;;5.82;100.00
42067;BME280;27734;47.028;28.820;2023-04-08T04:54:34;101037.19;;;5.81;100.00
42067;BME280;27734;47.028;28.820;2023-04-08T04:57:06;101040.98;;;5.86;100.00
42067;BME280;27734;47.028;28.820;2023-04-08T04:59:38;101042.79;;;5.87;100.00
42067;BME280;27734;47.028;28.820;2023-04-08T05:02:10;101045.48;;;5.88;100.00
42067;BME280;27734;47.028;28.820;2023-04-08T05:04:43;101043.27;;;5.94;100.00
42067;BME280;27734;47.028;28.820;2023-04-08T05:07:15;101042.70;;;5.99;100.00
42067;BME280;27734;47.028;28.820;2023-04-08T05:09:47;101041.28;;;6.04;100.00
42067;BME280;27734;47.028;28.820;2023-04-08T05:12:19;101045.06;;;6.09;100.00
42067;BME280;27734;47.028;28.820;2023-04-08T05:14:51;101040.97;;;6.13;100.00
42067;BME280;27734;47.028;28.820;2023-04-08T05:17:24;101048.24;;;6.18;100.00
42067;BME280;27734;47.028;28.820;2023-04-08T05:19:56;101046.66;;;6.20;100.00
42067;BME280;27734;47.028;28.820;2023-04-08T05:22:28;101039.73;;;6.21;100.00
42067;BME280;27734;47.028;28.820;2023-04-08T05:25:00;101044.94;;;6.21;100.00
42067;BME280;27734;47.028;28.820;2023-04-08T05:27:33;101048.72;;;6.26;100.00
42067;BME280;27734;47.028;28.820;2023-04-08T05:30:07;101052.44;;;6.29;100.00
42067;BME280;27734;47.028;28.820;2023-04-08T05:32:39;101048.59;;;6.38;100.00
42067;BME280;27734;47.028;28.820;2023-04-08T05:35:12;101048.97;;;6.44;100.00
42067;BME280;27734;47.028;28.820;2023-04-08T05:37:44;101049.44;;;6.52;100.00
42067;BME280;27734;47.028;28.820;2023-04-08T05:40:17;101049.16;;;6.62;100.00
42067;BME280;27734;47.028;28.820;2023-04-08T05:42:49;101049.34;;;6.65;100.00
42067;BME280;27734;47.028;28.820;2023-04-08T05:45:21;101056.28;;;6.64;100.00
42067;BME280;27734;47.028;28.820;2023-04-08T05:47:53;101045.05;;;6.65;100.00
42067;BME280;27734;47.028;28.820;2023-04-08T05:50:26;101054.93;;;6.71;100.00
42067;BME280;27734;47.028;28.820;2023-04-08T05:52:58;101057.63;;;6.73;100.00
42067;BME280;27734;47.028;28.820;2023-04-08T05:55:30;101056.04;;;6.75;100.00
42067;BME280;27734;47.028;28.820;2023-04-08T05:58:02;101060.61;;;6.79;100.00
42067;BME280;27734;47.028;28.820;2023-04-08T06:00:35;101061.63;;;6.81;100.00
42067;BME280;27734;47.028;28.820;2023-04-08T06:03:07;101059.11;;;6.82;100.00
42067;BME280;27734;47.028;28.820;2023-04-08T06:05:39;101068.09;;;6.88;100.00
42067;BME280;27734;47.028;28.820;2023-04-08T06:08:11;101067.36;;;6.90;100.00
42067;BME280;27734;47.028;28.820;2023-04-08T06:10:50;101062.59;;;6.98;100.00
42067;BME280;27734;47.028;28.820;2023-04-08T06:13:22;101059.46;;;7.04;100.00
42067;BME280;27734;47.028;28.820;2023-04-08T06:15:55;101063.88;;;7.05;100.00
42067;BME280;27734;47.028;28.820;2023-04-08T06:18:27;101059.02;;;7.11;100.00
42067;BME280;27734;47.028;28.820;2023-04-08T06:21:00;101060.80;;;7.12;100.00
42067;BME280;27734;47.028;28.820;2023-04-08T06:23:32;101060.00;;;7.13;100.00
42067;BME280;27734;47.028;28.820;2023-04-08T06:26:05;101070.80;;;7.19;100.00
42067;BME280;27734;47.028;28.820;2023-04-08T06:28:37;101071.34;;;7.28;100.00
42067;BME280;27734;47.028;28.820;2023-04-08T06:31:10;101070.98;;;7.37;100.00
42067;BME280;27734;47.028;28.820;2023-04-08T06:33:42;101080.95;;;7.44;100.00
42067;BME280;27734;47.028;28.820;2023-04-08T06:36:14;101076.08;;;7.50;100.00
42067;BME280;27734;47.028;28.820;2023-04-08T06:38:47;101082.55;;;7.57;100.00
42067;BME280;27734;47.028;28.820;2023-04-08T06:41:19;101076.78;;;7.63;100.00
42067;BME280;27734;47.028;28.820;2023-04-08T06:43:52;101075.49;;;7.71;100.00
42067;BME280;27734;47.028;28.820;2023-04-08T06:46:25;101068.17;;;7.80;100.00
42067;BME280;27734;47.028;28.820;2023-04-08T06:48:57;101068.43;;;7.85;100.00
42067;BME280;27734;47.028;28.820;2023-04-08T06:51:29;101081.75;;;7.89;100.00
42067;BME280;27734;47.028;28.820;2023-04-08T06:54:02;101076.15;;;7.98;100.00
42067;BME280;27734;47.028;28.820;2023-04-08T06:56:35;101074.84;;;8.06;100.00
42067;BME280;27734;47.028;28.820;2023-04-08T06:59:07;101078.05;;;8.17;100.00
42067;BME280;27734;47.028;28.820;2023-04-08T07:01:40;101069.82;;;8.26;100.00
42067;BME280;27734;47.028;28.820;2023-04-08T07:04:12;101074.71;;;8.36;100.00
42067;BME280;27734;47.028;28.820;2023-04-08T07:06:44;101083.97;;;8.46;100.00
42067;BME280;27734;47.028;28.820;2023-04-08T07:09:16;101084.46;;;8.55;100.00
42067;BME280;27734;47.028;28.820;2023-04-08T07:11:52;101089.38;;;8.66;100.00
42067;BME280;27734;47.028;28.820;2023-04-08T07:14:33;101090.03;;;8.78;100.00
42067;BME280;27734;47.028;28.820;2023-04-08T07:17:06;101095.90;;;8.90;100.00
42067;BME280;27734;47.028;28.820;2023-04-08T07:19:38;101098.47;;;9.07;100.00
42067;BME280;27734;47.028;28.820;2023-04-08T07:22:10;101091.48;;;9.24;100.00
42067;BME280;27734;47.028;28.820;2023-04-08T07:24:43;101096.52;;;9.37;100.00
42067;BME280;27734;47.028;28.820;2023-04-08T07:27:19;101090.31;;;9.53;100.00
42067;BME280;27734;47.028;28.820;2023-04-08T07:29:54;101091.88;;;9.67;100.00
42067;BME280;27734;47.028;28.820;2023-04-08T07:32:27;101092.55;;;9.81;100.00
42067;BME280;27734;47.028;28.820;2023-04-08T07:35:00;101090.67;;;9.97;100.00
42067;BME280;27734;47.028;28.820;2023-04-08T07:37:33;101099.19;;;10.11;100.00
42067;BME280;27734;47.028;28.820;2023-04-08T07:40:07;101101.72;;;10.27;100.00
42067;BME280;27734;47.028;28.820;2023-04-08T07:42:40;101093.67;;;10.42;100.00
42067;BME280;27734;47.028;28.820;2023-04-08T07:45:12;101091.68;;;10.56;100.00
42067;BME280;27734;47.028;28.820;2023-04-08T07:47:45;101087.80;;;10.67;100.00
42067;BME280;27734;47.028;28.820;2023-04-08T07:50:19;101086.64;;;10.80;100.00
42067;BME280;27734;47.028;28.820;2023-04-08T07:52:50;101093.19;;;10.90;89.40
42067;BME280;27734;47.028;28.820;2023-04-08T07:55:23;101078.65;;;10.98;95.05
42067;BME280;27734;47.028;28.820;2023-04-08T07:57:55;101080.79;;;11.07;100.00
42067;BME280;27734;47.028;28.820;2023-04-08T08:00:28;101077.21;;;11.05;100.00
42067;BME280;27734;47.028;28.820;2023-04-08T08:03:01;101087.75;;;11.06;92.08
42067;BME280;27734;47.028;28.820;2023-04-08T08:05:33;101079.70;;;11.23;94.78
42067;BME280;27734;47.028;28.820;2023-04-08T08:08:06;101084.27;;;11.27;94.23
42067;BME280;27734;47.028;28.820;2023-04-08T08:10:41;101079.14;;;11.30;97.31
42067;BME280;27734;47.028;28.820;2023-04-08T08:13:13;101073.03;;;11.31;98.82
42067;BME280;27734;47.028;28.820;2023-04-08T08:15:52;101075.09;;;11.38;97.11
42067;BME280;27734;47.028;28.820;2023-04-08T08:18:24;101069.20;;;11.44;99.48
42067;BME280;27734;47.028;28.820;2023-04-08T08:20:57;101070.22;;;11.47;99.96
42067;BME280;27734;47.028;28.820;2023-04-08T08:23:29;101072.16;;;11.51;100.00
42067;BME280;27734;47.028;28.820;2023-04-08T08:26:02;101068.80;;;11.56;98.80
42067;BME280;27734;47.028;28.820;2023-04-08T08:28:36;101068.22;;;11.63;100.00
42067;BME280;27734;47.028;28.820;2023-04-08T08:31:08;101069.17;;;11.65;92.55
42067;BME280;27734;47.028;28.820;2023-04-08T08:33:40;101077.30;;;11.71;94.60
42067;BME280;27734;47.028;28.820;2023-04-08T08:36:13;101071.34;;;11.75;96.59
42067;BME280;27734;47.028;28.820;2023-04-08T08:38:45;101078.56;;;11.81;97.83
42067;BME280;27734;47.028;28.820;2023-04-08T08:41:18;101075.05;;;11.80;94.81
42067;BME280;27734;47.028;28.820;2023-04-08T08:43:53;101076.60;;;11.75;95.96
42067;BME280;27734;47.028;28.820;2023-04-08T08:46:25;101077.05;;;11.65;87.73
42067;BME280;27734;47.028;28.820;2023-04-08T08:48:58;101071.86;;;11.66;92.66
42067;BME280;27734;47.028;28.820;2023-04-08T08:51:31;101075.98;;;11.60;92.94
42067;BME280;27734;47.028;28.820;2023-04-08T08:54:04;101074.42;;;11.65;95.50
42067;BME280;27734;47.028;28.820;2023-04-08T08:56:36;101076.23;;;11.66;94.10
42067;BME280;27734;47.028;28.820;2023-04-08T08:59:09;101075.31;;;11.65;94.63
42067;BME280;27734;47.028;28.820;2023-04-08T09:01:41;101077.55;;;11.77;95.40
42067;BME280;27734;47.028;28.820;2023-04-08T09:04:15;101082.11;;;11.81;95.36
42067;BME280;27734;47.028;28.820;2023-04-08T09:06:49;101076.23;;;11.88;95.49
42067;BME280;27734;47.028;28.820;2023-04-08T09:09:22;101079.14;;;11.95;92.17
42067;BME280;27734;47.028;28.820;2023-04-08T09:12:03;101070.48;;;11.97;95.01
42067;BME280;27734;47.028;28.820;2023-04-08T09:14:36;101072.59;;;12.06;94.72
42067;BME280;27734;47.028;28.820;2023-04-08T09:17:08;101070.91;;;12.08;91.04
42067;BME280;27734;47.028;28.820;2023-04-08T09:19:40;101070.84;;;12.07;89.44
42067;BME280;27734;47.028;28.820;2023-04-08T09:22:33;101071.97;;;12.13;90.78
42067;BME280;27734;47.028;28.820;2023-04-08T09:25:23;101070.52;;;12.21;92.29
42067;BME280;27734;47.028;28.820;2023-04-08T09:27:56;101066.75;;;12.37;93.58
42067;BME280;27734;47.028;28.820;2023-04-08T09:30:29;101062.78;;;12.49;93.98
42067;BME280;27734;47.028;28.820;2023-04-08T09:33:03;101057.96;;;12.61;92.90
42067;BME280;27734;47.028;28.820;2023-04-08T09:35:37;101057.15;;;12.88;93.73
42067;BME280;27734;47.028;28.820;2023-04-08T09:38:09;101055.83;;;13.01;90.84
42067;BME280;27734;47.028;28.820;2023-04-08T09:40:43;101059.22;;;12.97;88.33
42067;BME280;27734;47.028;28.820;2023-04-08T09:43:14;101061.75;;;12.93;88.24
42067;BME280;27734;47.028;28.820;2023-04-08T09:45:50;101056.05;;;13.07;90.95
42067;BME280;27734;47.028;28.820;2023-04-08T09:48:26;101054.92;;;13.26;90.51
42067;BME280;27734;47.028;28.820;2023-04-08T09:50:59;101057.61;;;13.27;91.53
42067;BME280;27734;47.028;28.820;2023-04-08T09:53:35;101055.22;;;13.34;90.58
42067;BME280;27734;47.028;28.820;2023-04-08T09:56:11;101052.35;;;13.53;88.79
42067;BME280;27734;47.028;28.820;2023-04-08T09:58:48;101055.34;;;13.64;90.26
42067;BME280;27734;47.028;28.820;2023-04-08T10:01:25;101060.70;;;13.67;89.33
42067;BME280;27734;47.028;28.820;2023-04-08T10:04:00;101053.48;;;13.61;88.22
42067;BME280;27734;47.028;28.820;2023-04-08T10:06:37;101050.80;;;13.60;89.22
42067;BME280;27734;47.028;28.820;2023-04-08T10:09:09;101049.18;;;13.63;89.28
42067;BME280;27734;47.028;28.820;2023-04-08T10:11:42;101050.11;;;13.65;89.21
42067;BME280;27734;47.028;28.820;2023-04-08T10:14:14;101052.80;;;13.67;89.91
42067;BME280;27734;47.028;28.820;2023-04-08T10:16:47;101059.16;;;13.74;88.95
42067;BME280;27734;47.028;28.820;2023-04-08T10:19:38;101054.72;;;13.73;88.87
42067;BME280;27734;47.028;28.820;2023-04-08T10:22:46;101060.13;;;13.77;88.40
42067;BME280;27734;47.028;28.820;2023-04-08T10:25:30;101062.82;;;13.79;88.95
42067;BME280;27734;47.028;28.820;2023-04-08T10:28:26;101057.45;;;13.76;88.51
42067;BME280;27734;47.028;28.820;2023-04-08T10:30:59;101057.23;;;13.68;86.75
42067;BME280;27734;47.028;28.820;2023-04-08T10:33:35;101052.70;;;13.64;86.83
42067;BME280;27734;47.028;28.820;2023-04-08T10:36:11;101051.09;;;13.69;87.28
42067;BME280;27734;47.028;28.820;2023-04-08T10:38:45;101054.81;;;13.76;86.73
42067;BME280;27734;47.028;28.820;2023-04-08T10:41:24;101048.98;;;13.86;86.44
42067;BME280;27734;47.028;28.820;2023-04-08T10:43:56;101055.48;;;13.97;86.47
42067;BME280;27734;47.028;28.820;2023-04-08T10:46:29;101046.17;;;14.09;85.81
42067;BME280;27734;47.028;28.820;2023-04-08T10:49:08;101048.31;;;14.22;84.20
42067;BME280;27734;47.028;28.820;2023-04-08T10:51:41;101037.89;;;14.27;83.74
42067;BME280;27734;47.028;28.820;2023-04-08T10:54:15;101029.70;;;14.48;85.26
42067;BME280;27734;47.028;28.820;2023-04-08T10:56:49;101023.77;;;14.56;82.77
42067;BME280;27734;47.028;28.820;2023-04-08T10:59:30;101028.83;;;14.49;79.31
42067;BME280;27734;47.028;28.820;2023-04-08T11:02:02;101024.80;;;14.60;80.85
42067;BME280;27734;47.028;28.820;2023-04-08T11:04:41;101020.78;;;14.74;80.50
42067;BME280;27734;47.028;28.820;2023-04-08T11:07:14;101017.17;;;14.71;79.37
42067;BME280;27734;47.028;28.820;2023-04-08T11:09:48;101024.55;;;14.84;81.69
42067;BME280;27734;47.028;28.820;2023-04-08T11:12:22;101015.98;;;14.93;80.95
42067;BME280;27734;47.028;28.820;2023-04-08T11:14:55;101012.98;;;14.79;78.73
42067;BME280;27734;47.028;28.820;2023-04-08T11:17:28;101017.89;;;14.65;78.45
42067;BME280;27734;47.028;28.820;2023-04-08T11:20:01;101020.33;;;14.59;76.46
42067;BME280;27734;47.028;28.820;2023-04-08T11:22:36;101027.77;;;14.42;67.41
42067;BME280;27734;47.028;28.820;2023-04-08T11:25:09;101023.02;;;14.30;72.39
42067;BME280;27734;47.028;28.820;2023-04-08T11:27:42;101023.80;;;14.26;73.68
42067;BME280;27734;47.028;28.820;2023-04-08T11:30:14;101026.27;;;14.20;73.23
42067;BME280;27734;47.028;28.820;2023-04-08T11:32:47;101025.34;;;14.18;73.65
42067;BME280;27734;47.028;28.820;2023-04-08T11:35:20;101031.41;;;14.15;74.18
42067;BME280;27734;47.028;28.820;2023-04-08T11:37:53;101024.51;;;14.20;75.29
42067;BME280;27734;47.028;28.820;2023-04-08T11:40:25;101023.80;;;14.26;75.87
42067;BME280;27734;47.028;28.820;2023-04-08T11:42:58;101019.59;;;14.33;75.90
42067;BME280;27734;47.028;28.820;2023-04-08T11:45:30;101024.11;;;14.37;75.17
42067;BME280;27734;47.028;28.820;2023-04-08T11:48:13;101019.02;;;14.43;75.80
42067;BME280;27734;47.028;28.820;2023-04-08T11:50:46;101018.88;;;14.38;73.19
42067;BME280;27734;47.028;28.820;2023-04-08T11:53:21;101015.41;;;14.41;75.26
42067;BME280;27734;47.028;28.820;2023-04-08T11:55:56;101005.85;;;14.45;74.58
42067;BME280;27734;47.028;28.820;2023-04-08T11:58:28;101003.21;;;14.45;74.16
42067;BME280;27734;47.028;28.820;2023-04-08T12:01:00;100998.86;;;14.47;75.12
42067;BME280;27734;47.028;28.820;2023-04-08T12:03:32;100996.47;;;14.56;74.59
42067;BME280;27734;47.028;28.820;2023-04-08T12:06:05;101001.75;;;14.56;72.43
42067;BME280;27734;47.028;28.820;2023-04-08T12:08:39;100988.70;;;14.61;74.41
42067;BME280;27734;47.028;28.820;2023-04-08T12:11:12;100989.59;;;14.61;73.88
42067;BME280;27734;47.028;28.820;2023-04-08T12:13:45;100989.22;;;14.49;67.81
42067;BME280;27734;47.028;28.820;2023-04-08T12:16:19;100996.39;;;14.53;71.15
42067;BME280;27734;47.028;28.820;2023-04-08T12:18:52;100979.83;;;14.59;72.71
42067;BME280;27734;47.028;28.820;2023-04-08T12:21:24;100983.55;;;14.65;73.89
42067;BME280;27734;47.028;28.820;2023-04-08T12:23:57;100984.19;;;14.58;69.02
42067;BME280;27734;47.028;28.820;2023-04-08T12:26:29;100979.74;;;14.55;71.09
42067;BME280;27734;47.028;28.820;2023-04-08T12:29:01;100983.22;;;14.54;71.11
42067;BME280;27734;47.028;28.820;2023-04-08T12:31:34;100983.22;;;14.54;71.80
42067;BME280;27734;47.028;28.820;2023-04-08T12:34:06;100986.70;;;14.53;71.82
42067;BME280;27734;47.028;28.820;2023-04-08T12:36:38;100975.27;;;14.53;72.16
42067;BME280;27734;47.028;28.820;2023-04-08T12:39:11;100982.38;;;14.55;72.18
42067;BME280;27734;47.028;28.820;2023-04-08T12:41:43;100980.55;;;14.53;71.12
42067;BME280;27734;47.028;28.820;2023-04-08T12:44:15;100981.51;;;14.56;71.89
42067;BME280;27734;47.028;28.820;2023-04-08T12:46:48;100982.38;;;14.55;70.91
42067;BME280;27734;47.028;28.820;2023-04-08T12:49:20;100978.03;;;14.58;70.91
42067;BME280;27734;47.028;28.820;2023-04-08T12:51:53;100975.39;;;14.58;72.57
42067;BME280;27734;47.028;28.820;2023-04-08T12:54:25;100973.63;;;14.58;71.17
42067;BME280;27734;47.028;28.820;2023-04-08T12:56:58;100975.55;;;14.62;72.05
42067;BME280;27734;47.028;28.820;2023-04-08T12:59:31;100970.30;;;14.64;71.77
42067;BME280;27734;47.028;28.820;2023-04-08T13:02:03;100974.83;;;14.68;72.01
42067;BME280;27734;47.028;28.820;2023-04-08T13:04:35;100969.63;;;14.71;72.00
42067;BME280;27734;47.028;28.820;2023-04-08T13:07:08;100970.62;;;14.76;71.99
42067;BME280;27734;47.028;28.820;2023-04-08T13:09:40;100972.52;;;14.82;71.73
42067;BME280;27734;47.028;28.820;2023-04-08T13:12:12;100965.55;;;14.84;71.63
42067;BME280;27734;47.028;28.820;2023-04-08T13:14:46;100963.78;;;14.84;71.55
42067;BME280;27734;47.028;28.820;2023-04-08T13:17:18;100965.59;;;14.85;71.49